Time;durP1;ratioP1;P1;durP2;ratioP2;P2;SDS_P1;SDS_P2;PMS_P1;PMS_P2;Temp;Humidity;BMP_temperature;BMP_pressure;BME280_temperature;BME280_humidity;BME280_pressure;Samples;Min_cycle;Max_cycle;Signal;HPM_P1;HPM_P2
2022/01/29 00:27:26;;;;;;;39.25;22.10;;;5.90;99.90;;;;;;6190338;23;20346;-84
2022/01/29 00:29:51;;;;;;;34.85;19.17;;;5.90;99.90;;;;;;6171124;23;20029;-83
2022/01/29 00:32:17;;;;;;;35.05;19.33;;;5.90;99.90;;;;;;6195699;23;20352;-83
2022/01/29 00:34:43;;;;;;;37.40;21.60;;;5.90;99.90;;;;;;6171304;23;20013;-83
2022/01/29 00:37:09;;;;;;;31.95;17.20;;;5.80;99.90;;;;;;6171404;23;20017;-84
2022/01/29 00:39:34;;;;;;;41.22;23.35;;;5.80;99.90;;;;;;6195579;23;20008;-84
2022/01/29 00:42:00;;;;;;;48.63;24.15;;;5.80;99.90;;;;;;6171547;23;20051;-87
2022/01/29 00:44:26;;;;;;;40.15;24.42;;;5.80;99.90;;;;;;6170921;23;20009;-84
2022/01/29 00:46:52;;;;;;;45.65;23.98;;;5.80;99.90;;;;;;6171537;23;20016;-84
2022/01/29 00:49:17;;;;;;;42.33;24.73;;;5.80;99.90;;;;;;6170841;23;20020;-84
2022/01/29 00:51:43;;;;;;;42.33;22.40;;;5.80;99.90;;;;;;6195999;23;20057;-84
2022/01/29 00:54:08;;;;;;;42.10;23.00;;;5.80;99.90;;;;;;6170799;23;20027;-84
2022/01/29 00:56:34;;;;;;;36.78;20.15;;;5.80;99.90;;;;;;6195991;23;20016;-84
2022/01/29 00:59:00;;;;;;;33.58;18.33;;;5.80;99.90;;;;;;6171163;23;20048;-84
2022/01/29 01:01:25;;;;;;;31.05;17.60;;;5.80;99.90;;;;;;6197255;23;20009;-83
2022/01/29 01:03:51;;;;;;;37.72;20.83;;;5.80;99.90;;;;;;6179507;23;20009;-84
2022/01/29 01:06:17;;;;;;;36.75;19.42;;;5.70;99.90;;;;;;6171456;23;20013;-84
2022/01/29 01:08:43;;;;;;;27.67;16.25;;;5.70;99.90;;;;;;6170315;23;20350;-82
2022/01/29 01:11:09;;;;;;;39.00;21.48;;;5.70;99.90;;;;;;6196054;23;20009;-83
2022/01/29 01:13:34;;;;;;;34.97;19.10;;;5.70;99.90;;;;;;6170789;23;20011;-83
2022/01/29 01:16:01;;;;;;;26.50;15.68;;;5.70;99.90;;;;;;6171191;23;20009;-84
2022/01/29 01:18:26;;;;;;;32.88;17.08;;;5.70;99.90;;;;;;6195450;23;20036;-84
2022/01/29 01:20:53;;;;;;;23.15;13.07;;;5.70;99.90;;;;;;6196219;23;20423;-84
2022/01/29 01:23:19;;;;;;;29.25;14.57;;;5.70;99.90;;;;;;6194978;23;20096;-84
2022/01/29 01:25:45;;;;;;;33.38;18.55;;;5.70;99.90;;;;;;6171042;23;20456;-84
2022/01/29 01:28:11;;;;;;;39.55;20.73;;;5.80;99.90;;;;;;6170809;23;20012;-83
2022/01/29 01:30:37;;;;;;;39.08;20.08;;;5.80;99.90;;;;;;6195799;23;20012;-84
2022/01/29 01:33:04;;;;;;;32.80;19.02;;;5.80;99.90;;;;;;6195724;23;20098;-84
2022/01/29 01:35:39;;;;;;;33.15;16.98;;;5.80;99.90;;;;;;6171089;23;20013;-84
2022/01/29 01:38:12;;;;;;;40.08;21.08;;;5.90;99.90;;;;;;6197441;23;20012;-84
2022/01/29 01:40:41;;;;;;;31.20;17.08;;;5.90;99.90;;;;;;6170390;23;20015;-84
2022/01/29 01:43:06;;;;;;;33.10;20.08;;;5.90;99.90;;;;;;6171176;23;20009;-84
2022/01/29 01:45:32;;;;;;;28.48;17.42;;;5.90;99.90;;;;;;6170872;23;20024;-84
2022/01/29 01:47:58;;;;;;;30.40;16.88;;;5.90;99.90;;;;;;6171065;23;20009;-84
2022/01/29 01:50:24;;;;;;;34.80;20.05;;;5.90;99.90;;;;;;6171206;23;20015;-85
2022/01/29 01:52:51;;;;;;;26.88;15.48;;;5.90;99.90;;;;;;6195039;23;20009;-84
2022/01/29 01:55:17;;;;;;;38.50;21.52;;;5.90;99.90;;;;;;6195274;23;20009;-83
2022/01/29 01:57:43;;;;;;;29.40;17.00;;;6.00;99.90;;;;;;6195552;23;20005;-84
2022/01/29 02:00:10;;;;;;;27.80;16.55;;;6.00;99.90;;;;;;6194997;23;20348;-83
2022/01/29 02:02:38;;;;;;;29.02;17.20;;;6.00;99.90;;;;;;6197581;23;20016;-84
2022/01/29 02:05:04;;;;;;;27.75;16.67;;;5.90;99.90;;;;;;6195753;23;20021;-84
2022/01/29 02:07:31;;;;;;;29.30;15.88;;;6.00;99.90;;;;;;6172398;23;20004;-85
2022/01/29 02:09:58;;;;;;;28.92;17.30;;;6.00;99.90;;;;;;6172663;23;20067;-84
2022/01/29 02:12:27;;;;;;;30.98;17.92;;;6.00;99.90;;;;;;6172349;23;20527;-84
2022/01/29 02:14:53;;;;;;;32.55;19.33;;;6.00;99.90;;;;;;6197718;23;20102;-84
2022/01/29 02:17:18;;;;;;;30.58;16.90;;;6.00;99.90;;;;;;6172361;23;20012;-84
2022/01/29 02:19:44;;;;;;;26.50;14.35;;;6.00;99.90;;;;;;6172781;23;20017;-85
2022/01/29 02:22:10;;;;;;;30.05;17.85;;;6.00;99.90;;;;;;6198622;23;20024;-83
2022/01/29 02:24:36;;;;;;;25.75;15.73;;;6.00;99.90;;;;;;6197340;23;20056;-85
2022/01/29 02:27:02;;;;;;;25.38;15.55;;;6.00;99.90;;;;;;6173152;23;20012;-85
2022/01/29 02:29:27;;;;;;;25.13;14.27;;;6.00;99.90;;;;;;6172444;23;20036;-84
2022/01/29 02:31:56;;;;;;;30.63;16.50;;;6.00;99.90;;;;;;6172658;23;20009;-85
2022/01/29 02:34:23;;;;;;;28.58;16.90;;;6.00;99.90;;;;;;6172127;23;20020;-83
2022/01/29 02:36:50;;;;;;;28.95;18.52;;;6.00;99.90;;;;;;6198109;23;20016;-86
2022/01/29 02:39:17;;;;;;;34.30;21.27;;;6.00;99.90;;;;;;6172948;23;20016;-85
2022/01/29 02:41:44;;;;;;;30.83;19.52;;;6.00;99.90;;;;;;6172043;23;20012;-85
2022/01/29 02:44:17;;;;;;;28.10;17.98;;;6.00;99.90;;;;;;6172880;23;20044;-85
2022/01/29 02:49:16;;;;;;;29.90;16.95;;;5.90;99.90;;;;;;6197495;23;20011;-85
2022/01/29 02:51:48;;;;;;;21.63;12.60;;;6.00;99.90;;;;;;6197267;23;20016;-86
2022/01/29 02:54:14;;;;;;;27.88;16.73;;;5.90;99.90;;;;;;6197066;23;20501;-86
2022/01/29 02:56:40;;;;;;;38.00;21.85;;;5.90;99.90;;;;;;6197299;23;20005;-85
2022/01/29 02:59:05;;;;;;;39.15;23.67;;;6.00;99.90;;;;;;6197813;23;20454;-86
2022/01/29 03:01:31;;;;;;;33.05;19.55;;;6.00;99.90;;;;;;6198392;23;20009;-85
2022/01/29 03:03:57;;;;;;;26.40;16.10;;;6.00;99.90;;;;;;6172370;23;20032;-86
2022/01/29 03:06:22;;;;;;;27.45;15.68;;;6.00;99.90;;;;;;6172316;23;20505;-86
2022/01/29 03:08:48;;;;;;;31.15;18.25;;;6.00;99.90;;;;;;6197906;23;20020;-86
2022/01/29 03:11:19;;;;;;;27.60;16.98;;;6.00;99.90;;;;;;6197178;23;20061;-87
2022/01/29 03:13:46;;;;;;;25.77;15.65;;;5.90;99.90;;;;;;6172387;23;20001;-86
2022/01/29 03:16:11;;;;;;;26.05;16.95;;;6.00;99.90;;;;;;6172837;23;20018;-86
2022/01/29 03:18:37;;;;;;;25.15;14.35;;;5.90;99.90;;;;;;6195921;23;20057;-85
2022/01/29 03:21:02;;;;;;;20.60;13.60;;;5.90;99.90;;;;;;6197422;23;20015;-87
2022/01/29 03:23:28;;;;;;;23.80;14.95;;;5.90;99.90;;;;;;6171678;23;20005;-86
2022/01/29 03:25:54;;;;;;;20.48;12.10;;;6.00;99.90;;;;;;6173263;23;20031;-86
2022/01/29 03:28:20;;;;;;;24.88;14.57;;;6.00;99.90;;;;;;6182278;23;20005;-85
2022/01/29 03:30:46;;;;;;;22.73;13.45;;;6.00;99.90;;;;;;6208213;23;20032;-87
2022/01/29 03:33:12;;;;;;;16.52;10.93;;;6.00;99.90;;;;;;6172144;23;20024;-86
2022/01/29 03:35:37;;;;;;;20.13;12.90;;;6.00;99.90;;;;;;6196824;23;20036;-84
2022/01/29 03:38:04;;;;;;;15.85;11.48;;;6.00;99.90;;;;;;6172525;23;20005;-86
2022/01/29 03:40:31;;;;;;;18.60;13.25;;;6.00;99.90;;;;;;6172302;23;20036;-85
2022/01/29 03:43:03;;;;;;;17.73;11.80;;;6.00;99.90;;;;;;6171881;23;20334;-85
2022/01/29 03:45:29;;;;;;;22.95;14.75;;;6.00;99.90;;;;;;6171685;23;20124;-85
2022/01/29 03:47:55;;;;;;;23.65;15.07;;;6.00;99.90;;;;;;6170497;23;20005;-85
2022/01/29 03:50:20;;;;;;;20.33;13.63;;;6.00;99.90;;;;;;6172170;23;20004;-85
2022/01/29 03:52:46;;;;;;;20.73;13.30;;;6.00;99.90;;;;;;6172201;23;20056;-85
2022/01/29 03:55:12;;;;;;;25.40;17.42;;;6.00;99.90;;;;;;6172059;23;20028;-85
2022/01/29 03:57:37;;;;;;;27.60;17.60;;;6.00;99.90;;;;;;6198068;23;20342;-85
2022/01/29 04:00:05;;;;;;;20.00;14.00;;;6.10;99.90;;;;;;6171941;23;20405;-85
2022/01/29 04:02:31;;;;;;;21.83;14.27;;;6.10;99.90;;;;;;6196173;23;20012;-86
2022/01/29 04:04:57;;;;;;;17.55;11.32;;;6.10;99.90;;;;;;6172008;23;20017;-85
2022/01/29 04:07:23;;;;;;;19.33;12.23;;;6.10;99.90;;;;;;6172087;23;20051;-85
2022/01/29 04:09:50;;;;;;;21.05;13.00;;;6.10;99.90;;;;;;6172326;23;20009;-85
2022/01/29 04:12:17;;;;;;;19.95;12.80;;;6.10;99.90;;;;;;6171511;23;20032;-86
2022/01/29 04:14:43;;;;;;;18.50;11.75;;;6.10;99.90;;;;;;6172159;23;20063;-85
2022/01/29 04:17:11;;;;;;;22.70;14.15;;;6.10;99.90;;;;;;6195946;23;20005;-85
2022/01/29 04:19:37;;;;;;;22.50;13.70;;;6.10;99.90;;;;;;6171579;23;20077;-85
2022/01/29 04:22:04;;;;;;;21.88;14.32;;;6.10;99.90;;;;;;6171995;23;20040;-85
2022/01/29 04:24:29;;;;;;;25.42;16.70;;;6.10;99.90;;;;;;6171187;23;20060;-85
2022/01/29 04:26:55;;;;;;;27.13;18.00;;;6.10;99.90;;;;;;6196903;23;20009;-84
2022/01/29 04:29:21;;;;;;;26.77;17.10;;;6.10;99.90;;;;;;6170669;23;20048;-85
2022/01/29 04:34:18;;;;;;;28.88;17.95;;;6.10;99.90;;;;;;6196217;23;20017;-84
2022/01/29 04:36:44;;;;;;;36.85;20.42;;;6.20;99.90;;;;;;6171355;23;20012;-83
2022/01/29 04:39:10;;;;;;;28.27;16.40;;;6.20;99.90;;;;;;6171438;23;20419;-83
2022/01/29 04:41:35;;;;;;;23.38;15.07;;;6.20;99.90;;;;;;6196353;23;20015;-83
2022/01/29 04:44:01;;;;;;;24.90;14.85;;;6.20;99.90;;;;;;6171341;23;20009;-84
2022/01/29 04:46:27;;;;;;;27.45;16.75;;;6.20;99.90;;;;;;6170905;23;20013;-84
2022/01/29 04:48:53;;;;;;;25.42;14.77;;;6.20;99.90;;;;;;6171295;23;20001;-84
2022/01/29 04:51:19;;;;;;;35.55;20.27;;;6.20;99.90;;;;;;6171373;23;20447;-86
2022/01/29 04:53:45;;;;;;;29.33;16.65;;;6.30;99.90;;;;;;6171493;23;20347;-85
2022/01/29 04:56:10;;;;;;;30.40;19.25;;;6.20;99.90;;;;;;6171346;23;20040;-85
2022/01/29 04:58:36;;;;;;;33.10;18.02;;;6.30;99.90;;;;;;6171308;23;20151;-87
2022/01/29 05:01:03;;;;;;;33.05;19.08;;;6.30;99.90;;;;;;6171131;23;20011;-87
2022/01/29 05:03:28;;;;;;;37.60;19.48;;;6.30;99.90;;;;;;6180516;23;20029;-88
2022/01/29 05:05:54;;;;;;;44.47;25.15;;;6.30;99.90;;;;;;6178517;23;20024;-87
2022/01/29 05:08:20;;;;;;;43.50;22.77;;;6.30;99.90;;;;;;6173259;23;20005;-87
2022/01/29 05:10:46;;;;;;;35.88;20.27;;;6.40;99.90;;;;;;6171847;23;20406;-87
2022/01/29 05:13:16;;;;;;;33.20;18.33;;;6.30;99.90;;;;;;6194029;23;19997;-87
2022/01/29 05:15:54;;;;;;;40.75;22.17;;;6.30;99.90;;;;;;6171087;23;20048;-87
2022/01/29 05:29:36;;;;;;;42.60;23.45;;;6.40;99.90;;;;;;6110645;23;20392;-86
2022/01/29 05:32:05;;;;;;;35.53;19.80;;;6.50;99.90;;;;;;6111400;23;20017;-85
2022/01/29 05:43:21;;;;;;;49.92;24.70;;;6.50;99.90;;;;;;6137193;23;20021;-86
2022/01/29 05:45:46;;;;;;;52.63;28.33;;;6.50;99.90;;;;;;6112993;23;20041;-87
2022/01/29 05:48:12;;;;;;;51.67;27.70;;;6.60;99.90;;;;;;6113643;23;20013;-87
2022/01/29 05:50:38;;;;;;;51.67;28.02;;;6.60;99.90;;;;;;6112801;23;20017;-87
2022/01/29 05:53:03;;;;;;;44.83;23.70;;;6.60;99.90;;;;;;6113388;23;20002;-87
2022/01/29 05:55:29;;;;;;;43.03;24.20;;;6.60;99.90;;;;;;6113074;23;20010;-87
2022/01/29 05:57:55;;;;;;;52.88;27.83;;;6.60;99.90;;;;;;6112945;23;20010;-89
2022/01/29 06:00:20;;;;;;;55.47;29.45;;;6.70;99.90;;;;;;6112615;23;20010;-88
2022/01/29 06:02:46;;;;;;;51.53;25.33;;;6.70;99.90;;;;;;6148977;23;20009;-87
2022/01/29 06:05:12;;;;;;;52.65;27.63;;;6.70;99.90;;;;;;6177503;23;20017;-87
2022/01/29 06:07:37;;;;;;;42.00;22.13;;;6.70;99.90;;;;;;6175456;23;20019;-87
2022/01/29 06:10:03;;;;;;;49.53;23.63;;;6.70;99.90;;;;;;6174896;23;20100;-87
2022/01/29 06:12:29;;;;;;;47.22;26.20;;;6.80;99.90;;;;;;6172932;23;20016;-87
2022/01/29 06:14:54;;;;;;;52.22;28.55;;;6.80;99.90;;;;;;6172989;23;20020;-87
2022/01/29 06:17:20;;;;;;;49.20;27.70;;;6.80;99.90;;;;;;6173093;23;20053;-88
2022/01/29 06:19:48;;;;;;;38.85;22.42;;;6.80;99.90;;;;;;6173325;23;20005;-87
2022/01/29 06:22:14;;;;;;;48.05;25.13;;;6.80;99.90;;;;;;6197800;23;20005;-86
2022/01/29 06:24:41;;;;;;;46.67;25.85;;;6.90;99.90;;;;;;6172511;23;20021;-87
2022/01/29 06:27:06;;;;;;;43.53;24.13;;;6.90;99.90;;;;;;6173487;23;20084;-87
2022/01/29 06:29:32;;;;;;;41.20;22.38;;;6.90;99.90;;;;;;6171926;23;20016;-87
2022/01/29 06:31:58;;;;;;;46.95;25.38;;;6.90;99.90;;;;;;6173211;23;20016;-87
2022/01/29 06:34:23;;;;;;;47.67;27.02;;;6.90;99.90;;;;;;6172566;23;20013;-88
2022/01/29 06:36:49;;;;;;;45.22;25.38;;;7.00;99.90;;;;;;6173160;23;20068;-88
2022/01/29 06:39:14;;;;;;;40.53;22.15;;;7.00;99.90;;;;;;6172838;23;20013;-88
2022/01/29 06:41:40;;;;;;;36.70;20.90;;;7.00;99.90;;;;;;6173032;23;20008;-88
2022/01/29 06:44:06;;;;;;;45.75;26.30;;;7.00;99.90;;;;;;6197406;23;20009;-86
2022/01/29 06:46:31;;;;;;;37.85;20.75;;;7.10;99.90;;;;;;6172926;23;20008;-87
2022/01/29 06:48:57;;;;;;;44.13;24.58;;;7.10;99.90;;;;;;6172706;23;20229;-87
2022/01/29 06:51:22;;;;;;;43.65;22.95;;;7.10;99.90;;;;;;6173090;23;20008;-87
2022/01/29 06:53:48;;;;;;;40.80;21.50;;;7.20;99.90;;;;;;6172631;23;20092;-87
2022/01/29 06:56:13;;;;;;;35.05;19.70;;;7.20;99.90;;;;;;6172717;23;20025;-87
2022/01/29 06:58:39;;;;;;;41.58;24.52;;;7.20;99.90;;;;;;6197143;23;20025;-87
2022/01/29 07:01:05;;;;;;;38.13;20.33;;;7.20;99.90;;;;;;6197727;23;20013;-88
2022/01/29 07:03:30;;;;;;;40.78;21.35;;;7.20;99.90;;;;;;6197479;23;20009;-86
2022/01/29 07:05:56;;;;;;;34.08;21.95;;;7.30;99.90;;;;;;6197472;23;20025;-88
2022/01/29 07:08:22;;;;;;;31.77;18.15;;;7.30;99.90;;;;;;6172641;23;20009;-87
2022/01/29 07:10:49;;;;;;;27.27;15.40;;;7.30;99.90;;;;;;6198049;23;20013;-88
2022/01/29 07:13:15;;;;;;;27.73;17.13;;;7.30;99.90;;;;;;6175050;23;20060;-87
2022/01/29 07:15:40;;;;;;;31.13;18.48;;;7.30;99.90;;;;;;6175316;23;20005;-88
2022/01/29 07:18:06;;;;;;;31.08;17.55;;;7.30;99.90;;;;;;6172832;23;20016;-87
2022/01/29 07:20:32;;;;;;;32.00;17.70;;;7.40;99.90;;;;;;6172283;23;20005;-87
2022/01/29 07:22:58;;;;;;;24.52;14.43;;;7.40;99.90;;;;;;6172586;23;20040;-85
2022/01/29 07:25:26;;;;;;;28.13;16.55;;;7.40;99.90;;;;;;6169611;23;20021;-85
2022/01/29 07:27:52;;;;;;;33.35;17.13;;;7.40;99.90;;;;;;6171734;23;20097;-85
2022/01/29 07:30:19;;;;;;;25.52;15.15;;;7.40;99.90;;;;;;6171918;23;20451;-85
2022/01/29 07:32:45;;;;;;;29.52;18.20;;;7.40;99.90;;;;;;6170745;23;20101;-86
2022/01/29 07:35:12;;;;;;;38.72;20.42;;;7.50;99.90;;;;;;6197007;23;20036;-86
2022/01/29 07:37:37;;;;;;;33.53;20.42;;;7.50;99.90;;;;;;6171702;23;20012;-87
2022/01/29 07:40:04;;;;;;;31.33;19.83;;;7.50;99.90;;;;;;6171321;23;20009;-85
2022/01/29 07:42:30;;;;;;;37.15;22.63;;;7.60;99.90;;;;;;6172407;23;20005;-88
2022/01/29 07:44:56;;;;;;;33.15;20.60;;;7.60;99.90;;;;;;6171532;23;20020;-87
2022/01/29 07:47:21;;;;;;;33.83;21.88;;;7.70;99.90;;;;;;6196773;23;20016;-85
2022/01/29 07:49:47;;;;;;;33.70;20.90;;;7.70;99.90;;;;;;6172003;23;20001;-86
2022/01/29 07:52:13;;;;;;;36.40;23.80;;;7.70;99.90;;;;;;6172156;23;20024;-86
2022/01/29 07:54:38;;;;;;;30.15;19.17;;;7.70;99.90;;;;;;6196217;23;20009;-86
2022/01/29 07:57:04;;;;;;;31.80;19.13;;;7.70;99.90;;;;;;6197066;23;20018;-86
2022/01/29 07:59:30;;;;;;;38.10;23.48;;;7.80;99.90;;;;;;6172001;23;20009;-85
2022/01/29 08:01:55;;;;;;;32.33;20.30;;;7.80;99.90;;;;;;6171541;23;20009;-86
2022/01/29 08:04:24;;;;;;;31.60;19.33;;;7.80;99.90;;;;;;6171110;23;20016;-86
2022/01/29 08:06:51;;;;;;;29.17;19.40;;;7.80;99.90;;;;;;6197202;23;20392;-87
2022/01/29 08:09:16;;;;;;;31.90;18.75;;;7.80;99.90;;;;;;6170760;23;20005;-85
2022/01/29 08:11:42;;;;;;;31.52;17.40;;;7.90;99.90;;;;;;6171554;23;20035;-85
2022/01/29 08:14:08;;;;;;;29.58;19.00;;;7.90;99.90;;;;;;6195795;23;20054;-86
2022/01/29 08:16:34;;;;;;;32.38;20.45;;;7.90;99.90;;;;;;6171254;23;20019;-86
2022/01/29 08:18:59;;;;;;;29.77;19.20;;;7.90;99.90;;;;;;6171188;23;20005;-84
2022/01/29 08:21:25;;;;;;;26.50;16.70;;;7.90;99.90;;;;;;6178935;23;20024;-85
2022/01/29 08:23:50;;;;;;;32.70;20.98;;;7.90;99.90;;;;;;6173583;23;20001;-85
2022/01/29 08:26:16;;;;;;;33.75;21.40;;;8.00;99.90;;;;;;6170538;23;20017;-85
2022/01/29 08:28:42;;;;;;;35.85;20.58;;;8.10;99.90;;;;;;6171098;23;20105;-86
2022/01/29 08:31:08;;;;;;;23.40;16.40;;;8.10;99.90;;;;;;6171491;23;20019;-86
2022/01/29 08:33:34;;;;;;;26.15;17.58;;;8.10;99.90;;;;;;6195220;23;20017;-87
2022/01/29 08:36:00;;;;;;;31.85;18.75;;;8.20;99.90;;;;;;6196198;23;20070;-86
2022/01/29 08:38:26;;;;;;;27.45;17.95;;;8.20;99.90;;;;;;6170479;23;20028;-87
2022/01/29 08:40:53;;;;;;;24.38;16.60;;;8.20;99.90;;;;;;6195926;23;20423;-87
2022/01/29 08:43:19;;;;;;;26.40;17.05;;;8.30;99.90;;;;;;6170441;23;20021;-88
2022/01/29 08:45:45;;;;;;;24.90;15.38;;;8.40;99.90;;;;;;6170677;23;20017;-88
2022/01/29 08:48:10;;;;;;;20.73;15.05;;;8.40;99.90;;;;;;6195460;23;20040;-87
2022/01/29 08:50:36;;;;;;;21.00;14.75;;;8.40;99.90;;;;;;6170592;23;20010;-86
2022/01/29 08:53:02;;;;;;;20.42;13.10;;;8.50;99.90;;;;;;6170586;23;20008;-85
2022/01/29 08:55:27;;;;;;;24.60;13.88;;;8.50;99.90;;;;;;6170861;23;20064;-85
2022/01/29 08:57:53;;;;;;;23.05;16.13;;;8.50;99.90;;;;;;6171122;23;20005;-86
2022/01/29 09:00:19;;;;;;;18.92;12.43;;;8.60;99.90;;;;;;6170475;23;20005;-87
2022/01/29 09:02:45;;;;;;;19.00;13.05;;;8.60;99.90;;;;;;6171271;23;20445;-85
2022/01/29 09:05:12;;;;;;;20.63;13.77;;;8.60;99.90;;;;;;6170833;23;20040;-87
2022/01/29 09:07:37;;;;;;;20.88;13.27;;;8.70;99.90;;;;;;6195263;23;20021;-87
2022/01/29 09:10:03;;;;;;;19.88;12.80;;;8.70;99.90;;;;;;6171057;23;20013;-85
2022/01/29 09:12:30;;;;;;;18.52;13.98;;;8.70;99.90;;;;;;6170625;23;20008;-86
2022/01/29 09:14:56;;;;;;;15.90;11.48;;;8.70;99.90;;;;;;6171045;23;20083;-86
2022/01/29 09:17:21;;;;;;;18.60;13.40;;;8.70;99.90;;;;;;6170580;23;20080;-86
2022/01/29 09:19:47;;;;;;;17.15;12.13;;;8.70;99.90;;;;;;6171215;23;20009;-85
2022/01/29 09:22:13;;;;;;;15.27;12.00;;;8.70;99.90;;;;;;6169831;23;20008;-86
2022/01/29 09:24:39;;;;;;;20.60;13.50;;;8.70;99.90;;;;;;6195607;23;20027;-87
2022/01/29 09:27:05;;;;;;;18.98;12.80;;;8.80;99.90;;;;;;6170571;23;20005;-84
2022/01/29 09:29:31;;;;;;;21.55;14.98;;;8.80;99.90;;;;;;6170208;23;20013;-87
2022/01/29 09:31:57;;;;;;;18.42;13.32;;;8.80;99.90;;;;;;6170333;23;20031;-86
2022/01/29 09:34:22;;;;;;;17.88;12.13;;;8.80;99.90;;;;;;6194669;23;20013;-87
2022/01/29 09:36:48;;;;;;;18.85;12.80;;;8.80;99.90;;;;;;6170954;23;20020;-86
2022/01/29 09:39:13;;;;;;;19.98;14.40;;;8.80;99.90;;;;;;6170772;23;20016;-85
2022/01/29 09:41:44;;;;;;;22.15;15.88;;;8.80;99.90;;;;;;6170439;23;20005;-85
2022/01/29 09:44:11;;;;;;;20.52;14.25;;;8.80;99.90;;;;;;6195466;23;20012;-85
2022/01/29 09:46:39;;;;;;;19.25;15.07;;;8.90;99.90;;;;;;6168500;23;20013;-85
2022/01/29 09:49:05;;;;;;;19.92;14.52;;;8.90;99.90;;;;;;6170480;23;20009;-87
2022/01/29 09:51:31;;;;;;;18.67;12.82;;;8.90;99.90;;;;;;6169452;23;20035;-87
2022/01/29 09:53:56;;;;;;;17.30;13.15;;;8.90;99.90;;;;;;6195775;23;20009;-85
2022/01/29 09:56:22;;;;;;;14.60;11.07;;;9.00;99.90;;;;;;6170126;23;20080;-86
2022/01/29 09:58:48;;;;;;;18.00;15.00;;;9.00;99.90;;;;;;6195366;23;20013;-85
2022/01/29 10:01:16;;;;;;;19.70;14.20;;;9.00;99.90;;;;;;6170673;23;20033;-85
2022/01/29 10:04:06;;;;;;;20.80;15.27;;;9.10;99.90;;;;;;6170802;23;20040;-87
2022/01/29 10:06:33;;;;;;;18.00;12.73;;;9.10;99.90;;;;;;6194815;23;20044;-86
2022/01/29 10:09:01;;;;;;;15.68;12.10;;;9.10;99.90;;;;;;6170097;23;20009;-85
2022/01/29 10:11:27;;;;;;;14.93;10.27;;;9.20;99.90;;;;;;6170244;23;20011;-86
2022/01/29 10:13:59;;;;;;;14.35;10.63;;;9.20;99.90;;;;;;6170363;23;20009;-86
2022/01/29 10:16:27;;;;;;;16.52;10.13;;;9.20;99.90;;;;;;6170394;23;20013;-89
2022/01/29 10:19:06;;;;;;;12.25;8.75;;;9.30;99.90;;;;;;6194921;23;20089;-85
2022/01/29 10:21:44;;;;;;;14.57;11.87;;;9.30;99.90;;;;;;6195737;23;20009;-89
2022/01/29 10:24:15;;;;;;;14.18;11.23;;;9.40;99.90;;;;;;6164213;23;20020;-88
2022/01/29 10:26:46;;;;;;;12.40;10.07;;;9.40;99.90;;;;;;6145528;23;20032;-86
2022/01/29 10:29:23;;;;;;;12.65;8.40;;;9.40;99.90;;;;;;6197205;23;20079;-87
2022/01/29 10:31:51;;;;;;;10.60;8.68;;;9.40;99.90;;;;;;6172523;23;20017;-86
2022/01/29 10:34:26;;;;;;;12.52;9.20;;;9.40;99.90;;;;;;6196148;23;20320;-86
2022/01/29 10:37:15;;;;;;;9.07;8.10;;;9.40;99.90;;;;;;6196540;23;20008;-87
2022/01/29 10:39:42;;;;;;;9.15;7.78;;;9.40;99.90;;;;;;6172288;23;20009;-85
2022/01/29 10:42:27;;;;;;;9.00;7.20;;;9.50;99.90;;;;;;6171984;23;20017;-86
2022/01/29 10:45:03;;;;;;;10.32;7.28;;;9.50;99.90;;;;;;6196724;23;20049;-87
2022/01/29 10:47:58;;;;;;;7.45;6.40;;;9.60;99.90;;;;;;6171800;23;20008;-87
2022/01/29 10:50:24;;;;;;;9.05;6.65;;;9.70;99.90;;;;;;6196561;23;20067;-87
2022/01/29 10:52:49;;;;;;;10.13;5.68;;;9.80;99.90;;;;;;6171878;23;20009;-87
2022/01/29 10:55:15;;;;;;;8.40;5.57;;;9.80;99.90;;;;;;6171827;23;20011;-87
2022/01/29 10:57:44;;;;;;;8.27;5.10;;;9.80;99.90;;;;;;6172101;23;20009;-86
2022/01/29 11:00:24;;;;;;;7.35;4.57;;;9.90;99.90;;;;;;6171842;23;20008;-88
2022/01/29 11:02:57;;;;;;;11.73;4.20;;;9.90;99.90;;;;;;6198273;23;20013;-86
2022/01/29 11:05:26;;;;;;;5.38;4.13;;;9.90;99.90;;;;;;6195552;23;20021;-87
2022/01/29 11:07:54;;;;;;;10.20;4.60;;;10.00;99.90;;;;;;6196586;23;20334;-87
2022/01/29 11:10:20;;;;;;;6.72;3.53;;;9.90;99.90;;;;;;6196785;23;20154;-85
2022/01/29 11:12:48;;;;;;;7.35;3.53;;;9.90;99.90;;;;;;6170776;23;20009;-81
2022/01/29 11:15:22;;;;;;;8.02;3.63;;;10.00;99.90;;;;;;6171072;23;20019;-87
2022/01/29 11:17:49;;;;;;;6.28;3.20;;;10.00;99.90;;;;;;6171728;23;20054;-88
2022/01/29 11:20:15;;;;;;;6.78;3.38;;;10.10;99.90;;;;;;6196569;23;20036;-87
2022/01/29 11:22:45;;;;;;;7.90;2.88;;;10.10;99.90;;;;;;6196458;23;20009;-87
2022/01/29 11:25:16;;;;;;;6.18;2.38;;;10.30;99.90;;;;;;6196872;23;20028;-89
2022/01/29 11:27:42;;;;;;;4.95;2.70;;;10.30;99.90;;;;;;6197941;23;20012;-87
2022/01/29 11:30:08;;;;;;;3.42;1.63;;;10.30;99.90;;;;;;6171500;23;20100;-87
2022/01/29 11:32:42;;;;;;;5.53;1.30;;;10.20;99.90;;;;;;6170995;23;20015;-88
2022/01/29 11:35:28;;;;;;;6.30;1.50;;;10.20;99.90;;;;;;6171513;23;20016;-89
2022/01/29 11:38:03;;;;;;;5.30;1.30;;;10.20;99.90;;;;;;6171075;23;20013;-88
2022/01/29 11:40:40;;;;;;;2.80;1.02;;;10.20;99.90;;;;;;6171436;23;20033;-88
2022/01/29 11:43:15;;;;;;;3.35;1.23;;;10.20;99.90;;;;;;6171447;23;20431;-86
2022/01/29 11:45:57;;;;;;;4.97;1.60;;;10.20;99.90;;;;;;6196754;23;20012;-87
2022/01/29 11:48:30;;;;;;;3.20;1.17;;;10.30;99.90;;;;;;6195477;23;20049;-87
2022/01/29 11:50:57;;;;;;;4.18;1.20;;;10.30;99.90;;;;;;6196164;23;20040;-86
2022/01/29 11:53:24;;;;;;;5.38;1.10;;;10.30;99.90;;;;;;6170905;23;20009;-87
2022/01/29 11:55:53;;;;;;;3.78;1.05;;;10.20;99.90;;;;;;6196216;23;20040;-89
2022/01/29 11:58:29;;;;;;;7.10;1.40;;;10.20;99.90;;;;;;6171442;23;20009;-86
2022/01/29 12:01:00;;;;;;;3.78;1.02;;;10.20;99.90;;;;;;6170663;23;20016;-86
2022/01/29 12:03:35;;;;;;;4.95;0.95;;;10.20;99.90;;;;;;6170819;23;20441;-89
2022/01/29 12:06:30;;;;;;;5.18;1.20;;;10.20;99.90;;;;;;6170999;23;20474;-85
2022/01/29 12:09:29;;;;;;;3.53;0.80;;;10.20;99.90;;;;;;6171709;23;20005;-83
2022/01/29 12:12:13;;;;;;;6.70;0.80;;;10.20;99.90;;;;;;6195947;23;20020;-85
2022/01/29 12:14:39;;;;;;;4.28;0.70;;;10.20;99.90;;;;;;6170845;23;20005;-87
2022/01/29 12:17:06;;;;;;;6.28;0.70;;;10.20;99.90;;;;;;6197121;23;20016;-86
2022/01/29 12:19:40;;;;;;;4.38;0.80;;;10.20;99.90;;;;;;6197132;23;20375;-85
2022/01/29 12:22:14;;;;;;;3.42;0.73;;;10.30;99.90;;;;;;6171666;23;20017;-87
2022/01/29 12:24:48;;;;;;;3.75;0.80;;;10.30;99.90;;;;;;6195874;23;20012;-87
2022/01/29 12:27:14;;;;;;;2.33;0.50;;;10.30;99.90;;;;;;6195635;23;20016;-86
2022/01/29 12:29:39;;;;;;;6.30;0.60;;;10.30;99.90;;;;;;6195745;23;20009;-86
2022/01/29 12:32:05;;;;;;;4.25;0.85;;;10.30;99.90;;;;;;6171137;23;20025;-88
2022/01/29 12:34:31;;;;;;;1.48;0.40;;;10.30;99.90;;;;;;6170061;23;20017;-84
2022/01/29 12:37:10;;;;;;;2.40;0.60;;;10.20;99.90;;;;;;6171218;23;20009;-85
2022/01/29 12:39:41;;;;;;;4.28;0.85;;;10.20;99.90;;;;;;6195406;23;20009;-88
2022/01/29 12:45:05;;;;;;;2.85;0.73;;;10.30;99.90;;;;;;6195116;23;20009;-87
2022/01/29 12:47:35;;;;;;;3.40;0.70;;;10.40;99.90;;;;;;6170596;23;20032;-86
2022/01/29 12:50:00;;;;;;;3.28;0.60;;;10.40;99.90;;;;;;6195401;23;20009;-84
2022/01/29 12:52:28;;;;;;;2.85;0.47;;;10.40;99.90;;;;;;6195382;23;20005;-85
2022/01/29 12:54:57;;;;;;;1.38;0.40;;;10.40;99.90;;;;;;6195179;23;20013;-86
2022/01/29 12:57:22;;;;;;;3.28;0.40;;;10.40;99.90;;;;;;6195450;23;20470;-86
2022/01/29 12:59:48;;;;;;;5.18;0.93;;;10.40;99.90;;;;;;6194967;23;20228;-88
2022/01/29 13:02:15;;;;;;;3.00;0.40;;;10.40;99.90;;;;;;6170555;23;20033;-87
2022/01/29 13:04:44;;;;;;;3.95;0.52;;;10.30;99.90;;;;;;6170455;23;20019;-85
2022/01/29 13:07:09;;;;;;;2.60;0.50;;;10.30;99.90;;;;;;6170837;23;20017;-86
2022/01/29 13:09:36;;;;;;;2.90;0.50;;;10.30;99.90;;;;;;6170440;23;20342;-84
2022/01/29 13:12:11;;;;;;;3.50;0.40;;;10.30;99.90;;;;;;6195736;23;20012;-85
2022/01/29 13:14:37;;;;;;;7.20;0.50;;;10.30;99.90;;;;;;6169673;23;20104;-83
2022/01/29 13:17:09;;;;;;;2.85;0.50;;;10.30;99.90;;;;;;6170348;23;20012;-88
2022/01/29 13:19:36;;;;;;;3.75;0.30;;;10.40;99.90;;;;;;6195370;23;20064;-86
2022/01/29 13:22:07;;;;;;;7.80;0.77;;;10.30;99.90;;;;;;6195784;23;20059;-84
2022/01/29 13:24:41;;;;;;;3.17;0.47;;;10.30;99.90;;;;;;6169878;23;20024;-84
2022/01/29 13:27:19;;;;;;;4.07;0.55;;;10.30;99.90;;;;;;6170244;23;20001;-86
2022/01/29 13:29:51;;;;;;;3.53;0.60;;;10.30;99.90;;;;;;6170145;23;20019;-87
2022/01/29 13:32:28;;;;;;;5.00;0.50;;;10.30;99.90;;;;;;6170516;23;20005;-84
2022/01/29 13:34:53;;;;;;;4.88;0.60;;;10.30;99.90;;;;;;6170593;23;20402;-88
2022/01/29 13:37:31;;;;;;;3.30;0.50;;;10.30;99.90;;;;;;6195534;23;20087;-86